createdAt,value
2024-04-13T00:02:04.490Z,81.86
2024-04-13T00:04:31.602Z,80.99
2024-04-13T00:06:58.325Z,81.21
2024-04-13T00:09:25.078Z,80.88
2024-04-13T00:11:51.776Z,80.82
2024-04-13T00:14:18.557Z,80.77
2024-04-13T00:16:45.384Z,81.09
2024-04-13T00:19:16.506Z,82.12
2024-04-13T00:21:43.478Z,81.61
2024-04-13T00:24:11.943Z,81.62
2024-04-13T00:26:38.645Z,81.43
2024-04-13T00:29:08.244Z,81.68
2024-04-13T00:31:35.149Z,81.45
2024-04-13T00:34:02.488Z,81.74
2024-04-13T00:36:37.162Z,81.67
2024-04-13T00:39:06.220Z,81.27
2024-04-13T00:41:33.094Z,82.11
2024-04-13T00:44:01.298Z,81.81
2024-04-13T00:46:33.309Z,81.16
2024-04-13T00:49:01.448Z,81.62
2024-04-13T00:51:31.501Z,81.77
2024-04-13T00:53:58.376Z,81.46
2024-04-13T00:56:26.249Z,82.66
2024-04-13T00:58:53.572Z,83.13
2024-04-13T01:01:20.927Z,83.68
2024-04-13T01:03:49.066Z,82.48
2024-04-13T01:06:16.088Z,83.05
2024-04-13T01:08:45.424Z,82.64
2024-04-13T01:11:13.974Z,82.38
2024-04-13T01:13:42.218Z,82.53
2024-04-13T01:16:09.115Z,81.81
2024-04-13T01:18:35.918Z,82.35
2024-04-13T01:21:02.968Z,81.99
2024-04-13T01:23:31.449Z,82.14
2024-04-13T01:26:01.141Z,82.54
2024-04-13T01:28:32.300Z,82.59
2024-04-13T01:30:59.114Z,83.68
2024-04-13T01:33:25.995Z,84.00
2024-04-13T01:35:57.561Z,83.55
2024-04-13T01:38:24.227Z,83.89
2024-04-13T01:40:50.910Z,84.70
2024-04-13T01:43:20.226Z,83.65
2024-04-13T01:45:46.938Z,84.29
2024-04-13T01:48:13.717Z,84.15
2024-04-13T01:50:41.040Z,84.02
2024-04-13T01:53:08.116Z,85.12
2024-04-13T01:55:34.616Z,85.11
2024-04-13T01:58:01.371Z,85.83
2024-04-13T02:00:30.761Z,85.00
2024-04-13T02:02:57.479Z,84.76
2024-04-13T02:05:24.213Z,85.47
2024-04-13T02:07:50.897Z,86.20
2024-04-13T02:10:17.731Z,85.37
2024-04-13T02:12:44.427Z,84.87
2024-04-13T02:15:11.194Z,85.74
2024-04-13T02:17:42.458Z,85.33
2024-04-13T02:20:12.852Z,84.61
2024-04-13T02:22:39.516Z,84.96
2024-04-13T02:25:09.937Z,85.17
2024-04-13T02:27:36.718Z,85.92
2024-04-13T02:30:04.054Z,86.54
2024-04-13T02:32:30.812Z,86.85
2024-04-13T02:35:00.517Z,86.28
2024-04-13T02:37:27.272Z,86.13
2024-04-13T02:39:53.918Z,86.26
2024-04-13T02:42:20.592Z,86.31
2024-04-13T02:44:48.281Z,86.41
2024-04-13T02:47:14.968Z,85.93
2024-04-13T02:49:41.636Z,86.09
2024-04-13T02:52:11.019Z,85.67
2024-04-13T02:54:38.178Z,86.12
2024-04-13T02:57:06.091Z,86.50
2024-04-13T02:59:32.859Z,86.57
2024-04-13T03:01:59.581Z,86.20
2024-04-13T03:04:27.147Z,86.01
2024-04-13T03:06:53.830Z,85.59
2024-04-13T03:09:23.149Z,86.42
2024-04-13T03:11:49.889Z,86.83
2024-04-13T03:14:16.688Z,86.94
2024-04-13T03:16:43.461Z,86.85
2024-04-13T03:19:10.208Z,86.59
2024-04-13T03:21:37.876Z,86.85
2024-04-13T03:24:05.544Z,86.71
2024-04-13T03:26:34.910Z,86.41
2024-04-13T03:29:01.682Z,86.40
2024-04-13T03:31:28.416Z,86.30
2024-04-13T03:33:57.510Z,86.14
2024-04-13T03:36:24.386Z,87.06
2024-04-13T03:38:56.999Z,86.39
2024-04-13T03:41:23.840Z,87.11
2024-04-13T03:43:53.147Z,87.79
2024-04-13T03:46:19.826Z,87.00
2024-04-13T03:48:46.694Z,87.37
2024-04-13T03:51:14.347Z,87.71
2024-04-13T03:53:41.160Z,87.66
2024-04-13T03:56:07.932Z,86.78
2024-04-13T03:58:34.706Z,87.28
2024-04-13T04:01:04.340Z,87.51
2024-04-13T04:03:31.183Z,87.95
2024-04-13T04:05:57.980Z,88.02
2024-04-13T04:08:24.697Z,88.90
2024-04-13T04:10:51.360Z,88.45
2024-04-13T04:13:18.024Z,88.33
2024-04-13T04:15:44.907Z,88.02
2024-04-13T04:18:14.511Z,87.38
2024-04-13T04:20:42.512Z,87.76
2024-04-13T04:23:09.183Z,87.92
2024-04-13T04:25:35.894Z,88.34
2024-04-13T04:28:02.658Z,88.02
2024-04-13T04:30:29.546Z,88.02
2024-04-13T04:32:56.326Z,88.16
2024-04-13T04:35:25.719Z,87.98
2024-04-13T04:37:52.393Z,87.42
2024-04-13T04:40:19.326Z,88.25
2024-04-13T04:42:46.058Z,88.14
2024-04-13T04:45:12.903Z,88.26
2024-04-13T04:47:39.808Z,88.37
2024-04-13T04:50:07.328Z,88.16
2024-04-13T04:52:37.280Z,88.90
2024-04-13T04:55:06.504Z,88.26
2024-04-13T04:57:33.227Z,88.78
2024-04-13T04:59:59.958Z,89.18
2024-04-13T05:02:26.779Z,89.13
2024-04-13T05:04:53.580Z,89.25
2024-04-13T05:07:21.048Z,89.45
2024-04-13T05:09:50.472Z,89.46
2024-04-13T05:12:17.269Z,89.29
2024-04-13T05:14:44.033Z,89.55
2024-04-13T05:17:10.780Z,89.79
2024-04-13T05:19:39.688Z,89.96
2024-04-13T05:22:06.623Z,89.97
2024-04-13T05:24:33.699Z,89.03
2024-04-13T05:27:08.361Z,89.76
2024-04-13T05:29:37.239Z,89.29
2024-04-13T05:32:04.698Z,90.13
2024-04-13T05:34:31.479Z,89.38
2024-04-13T05:36:58.145Z,89.09
2024-04-13T05:39:24.884Z,89.27
2024-04-13T05:41:51.589Z,88.87
2024-04-13T05:44:20.881Z,89.32
2024-04-13T05:46:47.670Z,89.14
2024-04-13T05:49:14.437Z,88.49
2024-04-13T05:51:41.405Z,87.95
2024-04-13T05:54:08.059Z,87.71
2024-04-13T05:56:34.765Z,88.56
2024-04-13T05:59:01.438Z,88.73
2024-04-13T06:01:32.441Z,88.06
2024-04-13T06:03:59.239Z,87.74
2024-04-13T06:06:25.995Z,87.18
2024-04-13T06:08:52.713Z,87.01
2024-04-13T06:11:19.480Z,86.72
2024-04-13T06:13:46.237Z,86.83
2024-04-13T06:16:13.063Z,86.51
2024-04-13T06:18:42.447Z,86.46
2024-04-13T06:21:09.190Z,86.47
2024-04-13T06:23:35.949Z,85.84
2024-04-13T06:26:02.736Z,86.04
2024-04-13T06:28:29.465Z,86.44
2024-04-13T06:30:56.222Z,85.56
2024-04-13T06:33:23.220Z,85.61
2024-04-13T06:35:52.483Z,84.32
2024-04-13T06:38:24.842Z,85.11
2024-04-13T06:40:52.092Z,84.62
2024-04-13T06:43:18.829Z,84.36
2024-04-13T06:45:45.672Z,83.36
2024-04-13T06:48:12.404Z,82.61
2024-04-13T06:50:39.294Z,82.34
2024-04-13T06:53:08.575Z,82.08
2024-04-13T06:55:35.292Z,81.60
2024-04-13T06:58:01.986Z,82.21
2024-04-13T07:00:28.735Z,81.24
2024-04-13T07:02:55.486Z,80.76
2024-04-13T07:05:22.265Z,80.44
2024-04-13T07:07:48.985Z,80.42
2024-04-13T07:10:18.350Z,79.51
2024-04-13T07:12:45.127Z,79.20
2024-04-13T07:15:11.993Z,78.62
2024-04-13T07:20:58.778Z,78.07
2024-04-13T07:23:25.545Z,77.08
2024-04-13T07:26:00.670Z,78.15
2024-04-13T07:28:28.050Z,77.42
2024-04-13T07:30:54.774Z,76.57
2024-04-13T07:33:21.627Z,76.00
2024-04-13T07:35:49.465Z,77.01
2024-04-13T07:38:16.328Z,76.08
2024-04-13T07:40:43.036Z,74.65
2024-04-13T07:43:12.385Z,74.43
2024-04-13T07:45:39.158Z,73.99
2024-04-13T07:48:07.928Z,73.43
2024-04-13T07:50:34.912Z,72.61
2024-04-13T07:53:01.593Z,72.91
2024-04-13T07:55:29.081Z,71.26
2024-04-13T07:57:55.843Z,71.44
2024-04-13T08:00:25.687Z,70.11
2024-04-13T08:02:52.468Z,68.53
2024-04-13T08:05:19.239Z,67.62
2024-04-13T08:07:45.939Z,68.37
2024-04-13T08:10:12.607Z,67.83
2024-04-13T08:12:39.341Z,66.53
2024-04-13T08:15:09.972Z,65.70
2024-04-13T08:17:39.585Z,66.91
2024-04-13T08:20:10.367Z,64.79
2024-04-13T08:22:37.618Z,65.11
2024-04-13T08:25:05.909Z,64.02
2024-04-13T08:27:34.683Z,63.21
2024-04-13T08:30:01.523Z,63.12
2024-04-13T08:32:28.042Z,64.24
2024-04-13T08:34:57.521Z,62.43
2024-04-13T08:37:24.195Z,62.15
2024-04-13T08:39:51.090Z,62.11
2024-04-13T08:42:23.811Z,59.92
2024-04-13T08:44:53.174Z,61.95
2024-04-13T08:47:20.372Z,61.61
2024-04-13T08:49:48.754Z,62.59
2024-04-13T08:52:18.803Z,61.29
2024-04-13T08:54:46.725Z,61.68
2024-04-13T08:57:17.055Z,61.69
2024-04-13T08:59:44.588Z,61.04
2024-04-13T09:02:13.884Z,61.47
2024-04-13T09:04:40.760Z,62.28
2024-04-13T09:07:07.498Z,61.48
2024-04-13T09:09:36.738Z,61.27
2024-04-13T09:12:03.872Z,61.22
2024-04-13T09:14:30.644Z,60.92
2024-04-13T09:16:57.337Z,60.60
2024-04-13T09:19:24.339Z,60.80
2024-04-13T09:21:51.345Z,59.95
2024-04-13T09:24:18.078Z,61.36
2024-04-13T09:26:50.071Z,62.51
2024-04-13T09:29:25.409Z,60.63
2024-04-13T09:31:52.260Z,59.56
2024-04-13T09:34:19.230Z,60.33
2024-04-13T09:36:46.213Z,59.96
2024-04-13T09:39:20.385Z,57.73
2024-04-13T09:41:49.839Z,60.25
2024-04-13T09:44:25.098Z,59.50
2024-04-13T09:46:51.747Z,58.81
2024-04-13T09:49:18.468Z,58.62
2024-04-13T09:51:47.554Z,59.00
2024-04-13T09:54:15.006Z,59.53
2024-04-13T09:56:43.183Z,57.93
2024-04-13T09:59:13.595Z,59.98
2024-04-13T10:01:40.589Z,58.54
2024-04-13T10:04:07.678Z,58.45
2024-04-13T10:06:35.701Z,57.93
2024-04-13T10:09:05.913Z,58.15
2024-04-13T10:11:33.810Z,59.74
2024-04-13T10:14:00.772Z,58.73
2024-04-13T10:16:30.577Z,58.07
2024-04-13T10:18:57.571Z,57.14
2024-04-13T10:21:24.732Z,57.87
2024-04-13T10:23:55.939Z,57.84
2024-04-13T10:26:26.302Z,56.54
2024-04-13T10:28:57.832Z,56.42
2024-04-13T10:31:29.835Z,56.33
2024-04-13T10:33:57.820Z,56.24
2024-04-13T10:36:28.421Z,55.61
2024-04-13T10:38:56.103Z,57.11
2024-04-13T10:41:30.550Z,59.82
2024-04-13T10:43:58.090Z,55.81
2024-04-13T10:46:25.464Z,56.56
2024-04-13T10:48:55.055Z,56.39
2024-04-13T10:51:22.789Z,56.01
2024-04-13T10:53:50.201Z,55.47
2024-04-13T10:56:17.079Z,55.84
2024-04-13T10:58:43.763Z,55.75
2024-04-13T11:01:10.379Z,56.54
2024-04-13T11:03:37.304Z,56.88
2024-04-13T11:06:07.044Z,55.15
2024-04-13T11:08:34.598Z,55.92
2024-04-13T11:11:02.854Z,57.71
2024-04-13T11:13:31.584Z,57.02
2024-04-13T11:15:58.456Z,54.40
2024-04-13T11:18:25.404Z,55.06
2024-04-13T11:20:54.562Z,54.75
2024-04-13T11:23:24.009Z,54.54
2024-04-13T11:25:50.833Z,54.77
2024-04-13T11:28:17.532Z,53.39
2024-04-13T11:30:44.145Z,55.77
2024-04-13T11:33:11.841Z,53.34
2024-04-13T11:35:39.427Z,54.54
2024-04-13T11:38:06.702Z,53.32
2024-04-13T11:40:39.442Z,54.16
2024-04-13T11:43:06.367Z,54.24
2024-04-13T11:45:34.700Z,53.20
2024-04-13T11:48:02.304Z,53.69
2024-04-13T11:50:30.962Z,54.40
2024-04-13T11:52:57.818Z,53.93
2024-04-13T11:55:25.198Z,53.56
2024-04-13T11:57:54.645Z,55.13
2024-04-13T12:00:22.046Z,53.15
2024-04-13T12:02:48.978Z,53.94
2024-04-13T12:05:15.947Z,53.00
2024-04-13T12:07:44.033Z,54.16
2024-04-13T12:10:10.956Z,51.13
2024-04-13T12:12:37.718Z,51.08
2024-04-13T12:15:07.749Z,52.60
2024-04-13T12:17:34.506Z,53.34
2024-04-13T12:20:02.216Z,52.79
2024-04-13T12:22:29.566Z,52.71
2024-04-13T12:24:56.461Z,51.70
2024-04-13T12:27:23.697Z,51.14
2024-04-13T12:29:50.477Z,50.45
2024-04-13T12:32:20.676Z,52.11
2024-04-13T12:34:48.508Z,49.49
2024-04-13T12:37:16.693Z,50.82
2024-04-13T12:39:46.016Z,50.86
2024-04-13T12:42:12.732Z,49.79
2024-04-13T12:44:39.210Z,49.85
2024-04-13T12:49:36.160Z,51.95
2024-04-13T12:52:02.853Z,50.13
2024-04-13T12:54:29.485Z,50.35
2024-04-13T12:56:56.217Z,50.48
2024-04-13T12:59:22.798Z,50.99
2024-04-13T13:01:49.483Z,51.23
2024-04-13T13:04:16.039Z,50.56
2024-04-13T13:06:45.369Z,47.69
2024-04-13T13:09:12.123Z,47.68
2024-04-13T13:11:39.797Z,49.42
2024-04-13T13:14:07.612Z,49.77
2024-04-13T13:16:34.197Z,49.67
2024-04-13T13:19:00.962Z,49.79
2024-04-13T13:21:27.804Z,48.42
2024-04-13T13:23:57.385Z,50.30
2024-04-13T13:26:24.109Z,49.60
2024-04-13T13:28:52.987Z,48.87
2024-04-13T13:31:20.693Z,49.44
2024-04-13T13:33:47.255Z,47.28
2024-04-13T13:36:14.354Z,47.73
2024-04-13T13:38:41.812Z,49.07
2024-04-13T13:41:11.124Z,46.85
2024-04-13T13:43:37.798Z,47.25
2024-04-13T13:46:04.598Z,47.53
2024-04-13T13:48:31.436Z,48.70
2024-04-13T13:50:58.574Z,47.84
2024-04-13T13:53:25.238Z,47.25
2024-04-13T13:55:51.754Z,49.00
2024-04-13T13:58:21.088Z,47.77
2024-04-13T14:00:48.601Z,49.29
2024-04-13T14:03:15.905Z,48.72
2024-04-13T14:05:42.649Z,48.27
2024-04-13T14:08:09.334Z,48.43
2024-04-13T14:10:35.824Z,48.77
2024-04-13T14:13:03.447Z,48.78
2024-04-13T14:15:34.969Z,48.14
2024-04-13T14:18:03.704Z,48.22
2024-04-13T14:20:30.410Z,48.79
2024-04-13T14:22:56.910Z,49.20
2024-04-13T14:25:24.381Z,48.72
2024-04-13T14:27:51.144Z,46.13
2024-04-13T14:30:18.091Z,46.61
2024-04-13T14:32:48.034Z,46.53
2024-04-13T14:35:15.005Z,46.35
2024-04-13T14:37:41.725Z,46.72
2024-04-13T14:40:09.431Z,46.25
2024-04-13T14:42:36.169Z,46.31
2024-04-13T14:45:04.270Z,44.42
2024-04-13T14:47:31.037Z,46.04
2024-04-13T14:50:00.718Z,45.49
2024-04-13T14:52:28.084Z,45.70
2024-04-13T14:54:55.574Z,45.29
2024-04-13T14:57:22.295Z,45.73
2024-04-13T14:59:49.248Z,46.81
2024-04-13T15:02:16.167Z,45.93
2024-04-13T15:04:42.937Z,46.42
2024-04-13T15:07:12.365Z,47.79
2024-04-13T15:09:39.050Z,48.93
2024-04-13T15:12:06.297Z,47.33
2024-04-13T15:14:32.970Z,47.54
2024-04-13T15:16:59.477Z,48.58
2024-04-13T15:19:27.435Z,47.27
2024-04-13T15:21:54.215Z,46.01
2024-04-13T15:24:23.734Z,47.57
2024-04-13T15:26:50.478Z,45.34
2024-04-13T15:29:17.804Z,45.72
2024-04-13T15:31:44.563Z,46.88
2024-04-13T15:34:11.176Z,47.70
2024-04-13T15:36:37.930Z,47.47
2024-04-13T15:39:04.728Z,46.56
2024-04-13T15:41:34.043Z,46.01
2024-04-13T15:44:00.803Z,46.76
2024-04-13T15:46:30.688Z,46.74
2024-04-13T15:48:58.949Z,46.02
2024-04-13T15:51:25.742Z,44.74
2024-04-13T15:54:00.841Z,45.79
2024-04-13T15:56:37.318Z,45.82
2024-04-13T15:59:04.371Z,45.73
2024-04-13T16:01:31.195Z,46.33
2024-04-13T16:03:58.099Z,46.13
2024-04-13T16:06:24.937Z,46.25
2024-04-13T16:08:51.520Z,46.38
2024-04-13T16:11:18.273Z,46.82
2024-04-13T16:13:49.085Z,48.12
2024-04-13T16:16:21.599Z,47.84
2024-04-13T16:18:53.934Z,48.45
2024-04-13T16:21:20.781Z,48.27
2024-04-13T16:23:47.588Z,49.58
2024-04-13T16:26:14.107Z,47.28
2024-04-13T16:28:40.830Z,47.49
2024-04-13T16:31:10.090Z,47.31
2024-04-13T16:33:37.003Z,46.86
2024-04-13T16:36:04.793Z,47.52
2024-04-13T16:38:31.992Z,48.13
2024-04-13T16:40:58.671Z,47.49
2024-04-13T16:43:25.168Z,47.66
2024-04-13T16:45:51.977Z,48.45
2024-04-13T16:48:21.716Z,47.79
2024-04-13T16:50:55.398Z,48.56
2024-04-13T16:53:22.939Z,49.32
2024-04-13T16:55:49.685Z,48.64
2024-04-13T16:58:16.207Z,49.19
2024-04-13T17:00:42.909Z,49.78
2024-04-13T17:03:09.437Z,49.33
2024-04-13T17:05:38.804Z,49.84
2024-04-13T17:08:06.261Z,50.99
2024-04-13T17:10:33.288Z,50.63
2024-04-13T17:12:59.985Z,50.43
2024-04-13T17:15:26.601Z,51.25
2024-04-13T17:17:53.381Z,51.38
2024-04-13T17:20:20.163Z,51.74
2024-04-13T17:22:49.346Z,51.88
2024-04-13T17:25:16.237Z,51.73
2024-04-13T17:27:42.958Z,53.25
2024-04-13T17:30:10.038Z,52.58
2024-04-13T17:32:36.876Z,52.92
2024-04-13T17:35:04.925Z,53.50
2024-04-13T17:37:31.664Z,53.13
2024-04-13T17:40:00.778Z,53.91
2024-04-13T17:42:27.532Z,54.06
2024-04-13T17:44:54.049Z,54.51
2024-04-13T17:47:20.821Z,54.02
2024-04-13T17:49:47.345Z,53.97
2024-04-13T17:52:14.017Z,54.27
2024-04-13T17:54:40.720Z,54.53
2024-04-13T17:57:10.011Z,53.65
2024-04-13T17:59:36.657Z,56.02
2024-04-13T18:02:03.655Z,55.33
2024-04-13T18:04:30.324Z,55.42
2024-04-13T18:06:57.075Z,55.80
2024-04-13T18:09:23.725Z,55.85
2024-04-13T18:11:50.450Z,55.76
2024-04-13T18:14:19.772Z,55.93
2024-04-13T18:16:46.454Z,56.46
2024-04-13T18:19:13.284Z,55.82
2024-04-13T18:21:39.921Z,56.97
2024-04-13T18:24:08.877Z,56.53
2024-04-13T18:26:35.563Z,56.88
2024-04-13T18:29:03.328Z,58.60
2024-04-13T18:31:32.938Z,57.68
2024-04-13T18:34:01.975Z,57.16
2024-04-13T18:36:30.594Z,57.90
2024-04-13T18:38:57.143Z,59.01
2024-04-13T18:41:23.893Z,58.36
2024-04-13T18:43:50.422Z,58.55
2024-04-13T18:46:17.094Z,59.08
2024-04-13T18:48:46.437Z,59.89
2024-04-13T18:51:14.291Z,59.89
2024-04-13T18:53:41.066Z,60.28
2024-04-13T18:56:07.695Z,60.53
2024-04-13T18:58:34.613Z,60.87
2024-04-13T19:01:06.167Z,61.17
2024-04-13T19:03:33.169Z,61.55
2024-04-13T19:06:02.708Z,61.43
2024-04-13T19:08:29.891Z,61.51
2024-04-13T19:10:56.644Z,61.57
2024-04-13T19:13:23.665Z,61.71
2024-04-13T19:15:59.924Z,61.76
2024-04-13T19:18:35.386Z,62.30
2024-04-13T19:21:05.964Z,62.80
2024-04-13T19:23:32.982Z,62.96
2024-04-13T19:26:01.219Z,62.50
2024-04-13T19:28:28.744Z,62.56
2024-04-13T19:30:55.591Z,62.95
2024-04-13T19:33:23.401Z,63.18
2024-04-13T19:35:50.412Z,63.55
2024-04-13T19:38:19.828Z,63.84
2024-04-13T19:40:51.921Z,63.81
2024-04-13T19:43:18.800Z,63.80
2024-04-13T19:45:45.554Z,63.83
2024-04-13T19:48:12.346Z,64.08
2024-04-13T19:50:38.982Z,64.41
2024-04-13T19:53:06.100Z,64.32
2024-04-13T19:55:35.532Z,64.79
2024-04-13T19:58:02.309Z,64.69
2024-04-13T20:00:29.068Z,64.78
2024-04-13T20:02:55.850Z,64.82
2024-04-13T20:05:22.549Z,64.81
2024-04-13T20:07:49.242Z,64.90
2024-04-13T20:10:19.126Z,64.71
2024-04-13T20:12:50.213Z,64.98
2024-04-13T20:15:35.732Z,65.43
2024-04-13T20:18:21.600Z,66.32
2024-04-13T20:20:50.519Z,65.96
2024-04-13T20:23:18.285Z,65.35
2024-04-13T20:25:45.374Z,65.60
2024-04-13T20:28:14.676Z,66.09
2024-04-13T20:30:41.353Z,66.62
2024-04-13T20:33:08.256Z,65.69
2024-04-13T20:35:34.845Z,65.99
2024-04-13T20:38:01.936Z,65.89
2024-04-13T20:40:28.724Z,66.72
2024-04-13T20:42:57.929Z,66.50
2024-04-13T20:45:27.454Z,67.57
2024-04-13T20:47:54.213Z,67.01
2024-04-13T20:50:21.017Z,67.21
2024-04-13T20:52:56.678Z,67.83
2024-04-13T20:55:28.001Z,67.55
2024-04-13T20:57:54.991Z,67.71
2024-04-13T21:00:22.018Z,67.30
2024-04-13T21:02:51.459Z,67.12
2024-04-13T21:05:18.152Z,68.22
2024-04-13T21:07:44.928Z,68.97
2024-04-13T21:10:11.638Z,68.65
2024-04-13T21:12:38.412Z,69.55
2024-04-13T21:15:06.017Z,69.16
2024-04-13T21:17:32.802Z,69.14
2024-04-13T21:20:02.112Z,68.68
2024-04-13T21:22:29.346Z,69.10
2024-04-13T21:24:56.824Z,68.58
2024-04-13T21:27:23.900Z,68.98
2024-04-13T21:29:50.450Z,69.47
2024-04-13T21:32:17.499Z,68.34
2024-04-13T21:34:44.391Z,69.02
2024-04-13T21:37:13.729Z,69.27
2024-04-13T21:39:40.471Z,68.95
2024-04-13T21:42:07.298Z,68.96
2024-04-13T21:44:34.619Z,67.54
2024-04-13T21:47:01.431Z,67.86
2024-04-13T21:49:28.125Z,66.95
2024-04-13T21:51:54.938Z,66.27
2024-04-13T21:54:24.283Z,65.88
2024-04-13T21:56:50.975Z,66.01
2024-04-13T21:59:17.709Z,66.29
2024-04-13T22:01:44.427Z,65.58
2024-04-13T22:04:12.586Z,66.10
2024-04-13T22:06:39.475Z,65.81
2024-04-13T22:09:08.595Z,66.05
2024-04-13T22:11:38.024Z,66.02
2024-04-13T22:14:04.712Z,67.01
2024-04-13T22:16:31.409Z,66.34
2024-04-13T22:19:01.544Z,61.84
2024-04-13T22:21:28.927Z,60.72
2024-04-13T22:23:55.642Z,60.26
2024-04-13T22:26:22.439Z,59.79
2024-04-13T22:28:51.798Z,58.90
2024-04-13T22:31:19.217Z,58.53
2024-04-13T22:33:46.301Z,58.39
2024-04-13T22:36:13.041Z,58.19
2024-04-13T22:38:40.882Z,57.95
2024-04-13T22:41:07.621Z,58.71
2024-04-13T22:43:34.971Z,58.33
2024-04-13T22:46:04.698Z,57.64
2024-04-13T22:48:31.630Z,57.79
2024-04-13T22:51:01.208Z,57.12
2024-04-13T22:53:28.044Z,57.37
2024-04-13T22:55:55.212Z,56.51
2024-04-13T22:58:22.141Z,56.15
2024-04-13T23:00:50.664Z,57.46
2024-04-13T23:03:20.018Z,55.33
2024-04-13T23:05:54.075Z,55.67
2024-04-13T23:08:20.782Z,53.67
2024-04-13T23:10:47.532Z,52.96
2024-04-13T23:13:14.262Z,52.88
2024-04-13T23:15:41.321Z,54.69
2024-04-13T23:18:08.182Z,52.84
2024-04-13T23:20:37.621Z,52.96
2024-04-13T23:23:04.844Z,53.02
2024-04-13T23:25:32.660Z,52.18
2024-04-13T23:27:59.427Z,50.89
2024-04-13T23:30:26.163Z,50.75
2024-04-13T23:32:52.856Z,48.24
2024-04-13T23:35:19.722Z,48.02
2024-04-13T23:37:49.019Z,48.63
2024-04-13T23:40:17.243Z,47.93
2024-04-13T23:42:43.968Z,47.63
2024-04-13T23:45:10.674Z,46.81
2024-04-13T23:47:37.565Z,47.15
2024-04-13T23:50:04.805Z,46.27
2024-04-13T23:52:31.640Z,46.00
2024-04-13T23:55:01.038Z,44.29
2024-04-13T23:57:27.811Z,43.34
2024-04-13T23:59:54.554Z,44.16
